sensor_id;sensor_type;location;lat;lon;timestamp;P1;durP1;ratioP1;P2;durP2;ratioP2
74872;SDS011;68776;44.762;37.698;2023-03-31T00:00:24;15.95;;;12.70;;
74872;SDS011;68776;44.762;37.698;2023-03-31T00:01:25;15.32;;;11.75;;
74872;SDS011;68776;44.762;37.698;2023-03-31T00:02:27;15.95;;;12.05;;
74872;SDS011;68776;44.762;37.698;2023-03-31T00:03:29;17.45;;;13.23;;
74872;SDS011;68776;44.762;37.698;2023-03-31T00:04:33;18.40;;;13.32;;
74872;SDS011;68776;44.762;37.698;2023-03-31T00:05:35;16.15;;;12.70;;
74872;SDS011;68776;44.762;37.698;2023-03-31T00:06:37;15.98;;;12.32;;
74872;SDS011;68776;44.762;37.698;2023-03-31T00:07:41;16.30;;;13.27;;
74872;SDS011;68776;44.762;37.698;2023-03-31T00:08:43;18.90;;;14.85;;
74872;SDS011;68776;44.762;37.698;2023-03-31T00:09:45;17.08;;;12.65;;
74872;SDS011;68776;44.762;37.698;2023-03-31T00:10:46;19.17;;;15.17;;
74872;SDS011;68776;44.762;37.698;2023-03-31T00:11:48;18.73;;;13.82;;
74872;SDS011;68776;44.762;37.698;2023-03-31T00:12:50;15.95;;;14.07;;
74872;SDS011;68776;44.762;37.698;2023-03-31T00:13:51;17.77;;;14.45;;
74872;SDS011;68776;44.762;37.698;2023-03-31T00:14:52;15.38;;;12.18;;
74872;SDS011;68776;44.762;37.698;2023-03-31T00:16:06;14.32;;;11.73;;
74872;SDS011;68776;44.762;37.698;2023-03-31T00:17:09;14.73;;;13.20;;
74872;SDS011;68776;44.762;37.698;2023-03-31T00:18:10;13.15;;;11.23;;
74872;SDS011;68776;44.762;37.698;2023-03-31T00:19:12;14.00;;;12.60;;
74872;SDS011;68776;44.762;37.698;2023-03-31T00:20:19;12.20;;;10.90;;
74872;SDS011;68776;44.762;37.698;2023-03-31T00:21:21;15.10;;;13.63;;
74872;SDS011;68776;44.762;37.698;2023-03-31T00:22:28;12.95;;;11.65;;
74872;SDS011;68776;44.762;37.698;2023-03-31T00:23:29;13.85;;;11.88;;
74872;SDS011;68776;44.762;37.698;2023-03-31T00:24:31;13.97;;;12.47;;
74872;SDS011;68776;44.762;37.698;2023-03-31T00:25:32;14.07;;;12.57;;
74872;SDS011;68776;44.762;37.698;2023-03-31T00:26:33;14.83;;;13.37;;
74872;SDS011;68776;44.762;37.698;2023-03-31T00:27:36;12.32;;;10.70;;
74872;SDS011;68776;44.762;37.698;2023-03-31T00:28:37;14.00;;;12.57;;
74872;SDS011;68776;44.762;37.698;2023-03-31T00:29:38;13.85;;;12.27;;
74872;SDS011;68776;44.762;37.698;2023-03-31T00:30:40;13.52;;;12.23;;
74872;SDS011;68776;44.762;37.698;2023-03-31T00:31:41;12.35;;;11.00;;
74872;SDS011;68776;44.762;37.698;2023-03-31T00:32:42;13.38;;;12.07;;
74872;SDS011;68776;44.762;37.698;2023-03-31T00:33:43;11.40;;;10.20;;
74872;SDS011;68776;44.762;37.698;2023-03-31T00:34:44;13.20;;;11.65;;
74872;SDS011;68776;44.762;37.698;2023-03-31T00:35:49;13.15;;;11.85;;
74872;SDS011;68776;44.762;37.698;2023-03-31T00:36:51;13.27;;;11.80;;
74872;SDS011;68776;44.762;37.698;2023-03-31T00:37:55;12.50;;;11.20;;
74872;SDS011;68776;44.762;37.698;2023-03-31T00:38:59;11.57;;;10.30;;
74872;SDS011;68776;44.762;37.698;2023-03-31T00:40:07;12.63;;;11.13;;
74872;SDS011;68776;44.762;37.698;2023-03-31T00:41:08;13.50;;;12.20;;
74872;SDS011;68776;44.762;37.698;2023-03-31T00:42:10;13.10;;;11.77;;
74872;SDS011;68776;44.762;37.698;2023-03-31T00:43:23;13.23;;;11.15;;
74872;SDS011;68776;44.762;37.698;2023-03-31T00:44:28;12.00;;;10.80;;
74872;SDS011;68776;44.762;37.698;2023-03-31T00:45:30;13.18;;;11.82;;
74872;SDS011;68776;44.762;37.698;2023-03-31T00:46:33;12.43;;;11.15;;
74872;SDS011;68776;44.762;37.698;2023-03-31T00:48:05;12.45;;;11.23;;
74872;SDS011;68776;44.762;37.698;2023-03-31T00:49:24;11.90;;;10.70;;
74872;SDS011;68776;44.762;37.698;2023-03-31T00:50:32;12.50;;;11.20;;
74872;SDS011;68776;44.762;37.698;2023-03-31T00:51:36;12.87;;;10.63;;
74872;SDS011;68776;44.762;37.698;2023-03-31T00:52:38;13.40;;;11.68;;
74872;SDS011;68776;44.762;37.698;2023-03-31T00:53:39;11.68;;;10.48;;
74872;SDS011;68776;44.762;37.698;2023-03-31T00:54:41;12.48;;;11.27;;
74872;SDS011;68776;44.762;37.698;2023-03-31T00:55:50;13.48;;;12.18;;
74872;SDS011;68776;44.762;37.698;2023-03-31T00:56:54;11.93;;;10.30;;
74872;SDS011;68776;44.762;37.698;2023-03-31T00:57:57;12.95;;;10.85;;
74872;SDS011;68776;44.762;37.698;2023-03-31T00:59:02;14.48;;;10.68;;
74872;SDS011;68776;44.762;37.698;2023-03-31T01:00:08;12.85;;;11.23;;
74872;SDS011;68776;44.762;37.698;2023-03-31T01:01:19;12.65;;;11.30;;
74872;SDS011;68776;44.762;37.698;2023-03-31T01:02:23;12.48;;;11.18;;
74872;SDS011;68776;44.762;37.698;2023-03-31T01:03:25;13.27;;;11.82;;
74872;SDS011;68776;44.762;37.698;2023-03-31T01:04:26;12.35;;;11.15;;
74872;SDS011;68776;44.762;37.698;2023-03-31T01:05:30;12.48;;;11.10;;
74872;SDS011;68776;44.762;37.698;2023-03-31T01:06:37;13.07;;;11.77;;
74872;SDS011;68776;44.762;37.698;2023-03-31T01:07:50;12.88;;;11.52;;
74872;SDS011;68776;44.762;37.698;2023-03-31T01:08:52;12.90;;;11.45;;
74872;SDS011;68776;44.762;37.698;2023-03-31T01:09:56;12.50;;;10.80;;
74872;SDS011;68776;44.762;37.698;2023-03-31T01:11:00;13.35;;;12.05;;
74872;SDS011;68776;44.762;37.698;2023-03-31T01:12:05;12.80;;;11.50;;
74872;SDS011;68776;44.762;37.698;2023-03-31T01:13:11;13.00;;;11.70;;
74872;SDS011;68776;44.762;37.698;2023-03-31T01:14:14;13.05;;;11.40;;
74872;SDS011;68776;44.762;37.698;2023-03-31T01:15:16;11.32;;;10.13;;
74872;SDS011;68776;44.762;37.698;2023-03-31T01:16:17;14.27;;;12.87;;
74872;SDS011;68776;44.762;37.698;2023-03-31T01:17:19;12.75;;;11.13;;
74872;SDS011;68776;44.762;37.698;2023-03-31T01:18:21;12.95;;;11.45;;
74872;SDS011;68776;44.762;37.698;2023-03-31T01:19:26;14.95;;;13.30;;
74872;SDS011;68776;44.762;37.698;2023-03-31T01:22:44;17.02;;;12.55;;
74872;SDS011;68776;44.762;37.698;2023-03-31T01:26:48;14.60;;;13.00;;
74872;SDS011;68776;44.762;37.698;2023-03-31T01:30:48;16.23;;;14.13;;
74872;SDS011;68776;44.762;37.698;2023-03-31T01:33:25;16.40;;;12.65;;
74872;SDS011;68776;44.762;37.698;2023-03-31T01:35:00;16.70;;;13.80;;
74872;SDS011;68776;44.762;37.698;2023-03-31T01:38:47;18.70;;;14.10;;
74872;SDS011;68776;44.762;37.698;2023-03-31T01:44:37;25.23;;;17.58;;
74872;SDS011;68776;44.762;37.698;2023-03-31T01:47:24;21.77;;;15.70;;
74872;SDS011;68776;44.762;37.698;2023-03-31T01:50:02;23.15;;;15.70;;
74872;SDS011;68776;44.762;37.698;2023-03-31T01:52:20;18.15;;;14.75;;
74872;SDS011;68776;44.762;37.698;2023-03-31T01:53:44;19.00;;;14.15;;
74872;SDS011;68776;44.762;37.698;2023-03-31T01:56:57;18.48;;;13.60;;
74872;SDS011;68776;44.762;37.698;2023-03-31T01:58:04;18.33;;;16.17;;
74872;SDS011;68776;44.762;37.698;2023-03-31T01:59:34;18.50;;;14.13;;
74872;SDS011;68776;44.762;37.698;2023-03-31T02:00:41;20.10;;;14.00;;
74872;SDS011;68776;44.762;37.698;2023-03-31T02:05:17;15.93;;;12.90;;
74872;SDS011;68776;44.762;37.698;2023-03-31T02:06:23;19.33;;;13.68;;
74872;SDS011;68776;44.762;37.698;2023-03-31T02:07:41;18.77;;;14.05;;
74872;SDS011;68776;44.762;37.698;2023-03-31T02:08:48;20.27;;;14.90;;
74872;SDS011;68776;44.762;37.698;2023-03-31T02:09:57;18.92;;;13.55;;
74872;SDS011;68776;44.762;37.698;2023-03-31T02:11:02;19.03;;;14.93;;
74872;SDS011;68776;44.762;37.698;2023-03-31T02:12:04;17.65;;;14.52;;
74872;SDS011;68776;44.762;37.698;2023-03-31T02:13:09;22.85;;;13.98;;
74872;SDS011;68776;44.762;37.698;2023-03-31T02:14:17;16.35;;;14.60;;
74872;SDS011;68776;44.762;37.698;2023-03-31T02:15:23;17.15;;;13.68;;
74872;SDS011;68776;44.762;37.698;2023-03-31T02:16:30;15.88;;;14.23;;
74872;SDS011;68776;44.762;37.698;2023-03-31T02:17:34;17.02;;;13.90;;
74872;SDS011;68776;44.762;37.698;2023-03-31T02:18:39;17.13;;;12.63;;
74872;SDS011;68776;44.762;37.698;2023-03-31T02:19:43;15.35;;;13.75;;
74872;SDS011;68776;44.762;37.698;2023-03-31T02:20:48;15.20;;;13.55;;
74872;SDS011;68776;44.762;37.698;2023-03-31T02:21:51;13.93;;;12.48;;
74872;SDS011;68776;44.762;37.698;2023-03-31T02:22:55;15.68;;;14.07;;
74872;SDS011;68776;44.762;37.698;2023-03-31T02:23:56;16.02;;;14.02;;
74872;SDS011;68776;44.762;37.698;2023-03-31T02:25:05;15.27;;;13.68;;
74872;SDS011;68776;44.762;37.698;2023-03-31T02:26:14;13.20;;;11.80;;
74872;SDS011;68776;44.762;37.698;2023-03-31T02:27:25;15.63;;;12.98;;
74872;SDS011;68776;44.762;37.698;2023-03-31T02:28:42;13.40;;;11.57;;
74872;SDS011;68776;44.762;37.698;2023-03-31T02:29:43;13.03;;;11.73;;
74872;SDS011;68776;44.762;37.698;2023-03-31T02:30:47;12.93;;;11.70;;
74872;SDS011;68776;44.762;37.698;2023-03-31T02:32:14;13.02;;;10.95;;
74872;SDS011;68776;44.762;37.698;2023-03-31T02:33:18;11.95;;;10.50;;
74872;SDS011;68776;44.762;37.698;2023-03-31T02:34:19;12.20;;;11.00;;
74872;SDS011;68776;44.762;37.698;2023-03-31T02:35:21;12.00;;;10.90;;
74872;SDS011;68776;44.762;37.698;2023-03-31T02:36:24;12.23;;;10.95;;
74872;SDS011;68776;44.762;37.698;2023-03-31T02:37:25;12.10;;;10.50;;
74872;SDS011;68776;44.762;37.698;2023-03-31T02:38:29;13.32;;;12.02;;
74872;SDS011;68776;44.762;37.698;2023-03-31T02:39:35;10.73;;;9.52;;
74872;SDS011;68776;44.762;37.698;2023-03-31T02:40:40;13.15;;;11.95;;
74872;SDS011;68776;44.762;37.698;2023-03-31T02:41:41;11.07;;;9.93;;
74872;SDS011;68776;44.762;37.698;2023-03-31T02:42:43;13.13;;;11.85;;
74872;SDS011;68776;44.762;37.698;2023-03-31T02:43:44;12.82;;;10.52;;
74872;SDS011;68776;44.762;37.698;2023-03-31T02:44:45;21.43;;;15.50;;
74872;SDS011;68776;44.762;37.698;2023-03-31T02:45:47;23.70;;;16.65;;
74872;SDS011;68776;44.762;37.698;2023-03-31T02:46:50;32.55;;;20.88;;
74872;SDS011;68776;44.762;37.698;2023-03-31T02:47:52;55.72;;;32.47;;
74872;SDS011;68776;44.762;37.698;2023-03-31T02:48:57;70.03;;;39.78;;
74872;SDS011;68776;44.762;37.698;2023-03-31T02:50:01;55.65;;;32.80;;
74872;SDS011;68776;44.762;37.698;2023-03-31T02:52:17;49.80;;;29.52;;
74872;SDS011;68776;44.762;37.698;2023-03-31T02:56:50;31.95;;;19.40;;
74872;SDS011;68776;44.762;37.698;2023-03-31T03:00:33;24.90;;;16.33;;
74872;SDS011;68776;44.762;37.698;2023-03-31T03:04:35;17.73;;;14.52;;
74872;SDS011;68776;44.762;37.698;2023-03-31T03:07:20;26.40;;;20.98;;
74872;SDS011;68776;44.762;37.698;2023-03-31T03:11:27;19.88;;;16.27;;
74872;SDS011;68776;44.762;37.698;2023-03-31T03:15:11;15.65;;;13.35;;
74872;SDS011;68776;44.762;37.698;2023-03-31T03:19:04;15.55;;;11.48;;
74872;SDS011;68776;44.762;37.698;2023-03-31T03:20:06;12.98;;;10.90;;
74872;SDS011;68776;44.762;37.698;2023-03-31T03:21:08;12.07;;;8.93;;
74872;SDS011;68776;44.762;37.698;2023-03-31T03:22:09;10.00;;;8.48;;
74872;SDS011;68776;44.762;37.698;2023-03-31T03:23:10;9.13;;;8.13;;
74872;SDS011;68776;44.762;37.698;2023-03-31T03:24:12;10.90;;;9.65;;
74872;SDS011;68776;44.762;37.698;2023-03-31T03:25:17;9.75;;;8.75;;
74872;SDS011;68776;44.762;37.698;2023-03-31T03:26:19;10.80;;;9.73;;
74872;SDS011;68776;44.762;37.698;2023-03-31T03:27:22;9.15;;;8.30;;
74872;SDS011;68776;44.762;37.698;2023-03-31T03:28:23;10.10;;;9.10;;
74872;SDS011;68776;44.762;37.698;2023-03-31T03:29:24;9.93;;;9.02;;
74872;SDS011;68776;44.762;37.698;2023-03-31T03:30:26;10.48;;;9.48;;
74872;SDS011;68776;44.762;37.698;2023-03-31T03:31:27;10.40;;;9.38;;
74872;SDS011;68776;44.762;37.698;2023-03-31T03:32:30;10.30;;;8.13;;
74872;SDS011;68776;44.762;37.698;2023-03-31T03:33:32;9.13;;;8.18;;
74872;SDS011;68776;44.762;37.698;2023-03-31T03:34:33;10.55;;;9.43;;
74872;SDS011;68776;44.762;37.698;2023-03-31T03:35:34;10.43;;;9.40;;
74872;SDS011;68776;44.762;37.698;2023-03-31T03:36:36;9.60;;;8.70;;
74872;SDS011;68776;44.762;37.698;2023-03-31T03:37:37;9.55;;;8.63;;
74872;SDS011;68776;44.762;37.698;2023-03-31T03:38:38;9.85;;;8.50;;
74872;SDS011;68776;44.762;37.698;2023-03-31T03:39:39;10.37;;;9.37;;
74872;SDS011;68776;44.762;37.698;2023-03-31T03:40:40;9.85;;;8.45;;
74872;SDS011;68776;44.762;37.698;2023-03-31T03:41:41;10.57;;;9.57;;
74872;SDS011;68776;44.762;37.698;2023-03-31T03:42:42;9.32;;;8.43;;
74872;SDS011;68776;44.762;37.698;2023-03-31T03:43:43;10.20;;;9.30;;
74872;SDS011;68776;44.762;37.698;2023-03-31T03:44:44;10.13;;;9.13;;
74872;SDS011;68776;44.762;37.698;2023-03-31T03:45:48;11.35;;;10.23;;
74872;SDS011;68776;44.762;37.698;2023-03-31T03:46:51;9.55;;;8.65;;
74872;SDS011;68776;44.762;37.698;2023-03-31T03:47:52;9.50;;;8.50;;
74872;SDS011;68776;44.762;37.698;2023-03-31T03:48:53;10.88;;;9.15;;
74872;SDS011;68776;44.762;37.698;2023-03-31T03:49:54;12.32;;;10.57;;
74872;SDS011;68776;44.762;37.698;2023-03-31T03:50:57;12.30;;;11.05;;
74872;SDS011;68776;44.762;37.698;2023-03-31T03:52:00;10.80;;;9.80;;
74872;SDS011;68776;44.762;37.698;2023-03-31T03:53:01;10.33;;;9.27;;
74872;SDS011;68776;44.762;37.698;2023-03-31T03:54:01;11.18;;;10.00;;
74872;SDS011;68776;44.762;37.698;2023-03-31T03:55:02;10.80;;;9.70;;
74872;SDS011;68776;44.762;37.698;2023-03-31T03:56:04;10.43;;;9.38;;
74872;SDS011;68776;44.762;37.698;2023-03-31T03:57:06;11.07;;;8.70;;
74872;SDS011;68776;44.762;37.698;2023-03-31T03:58:06;9.60;;;8.25;;
74872;SDS011;68776;44.762;37.698;2023-03-31T03:59:07;9.70;;;8.48;;
74872;SDS011;68776;44.762;37.698;2023-03-31T04:00:10;11.85;;;9.98;;
74872;SDS011;68776;44.762;37.698;2023-03-31T04:01:11;12.48;;;10.35;;
74872;SDS011;68776;44.762;37.698;2023-03-31T04:02:13;16.50;;;12.20;;
74872;SDS011;68776;44.762;37.698;2023-03-31T04:03:14;16.73;;;14.13;;
74872;SDS011;68776;44.762;37.698;2023-03-31T04:04:16;15.35;;;13.45;;
74872;SDS011;68776;44.762;37.698;2023-03-31T04:05:17;17.80;;;14.48;;
74872;SDS011;68776;44.762;37.698;2023-03-31T04:06:18;20.88;;;14.90;;
74872;SDS011;68776;44.762;37.698;2023-03-31T04:07:19;20.98;;;16.30;;
74872;SDS011;68776;44.762;37.698;2023-03-31T04:08:20;20.92;;;15.32;;
74872;SDS011;68776;44.762;37.698;2023-03-31T04:09:21;17.83;;;15.75;;
74872;SDS011;68776;44.762;37.698;2023-03-31T04:10:22;21.25;;;15.48;;
74872;SDS011;68776;44.762;37.698;2023-03-31T04:11:23;19.20;;;15.45;;
74872;SDS011;68776;44.762;37.698;2023-03-31T04:12:24;17.35;;;15.13;;
74872;SDS011;68776;44.762;37.698;2023-03-31T04:13:24;20.42;;;14.80;;
74872;SDS011;68776;44.762;37.698;2023-03-31T04:14:25;17.05;;;13.85;;
74872;SDS011;68776;44.762;37.698;2023-03-31T04:15:26;18.73;;;14.50;;
74872;SDS011;68776;44.762;37.698;2023-03-31T04:16:27;18.92;;;14.23;;
74872;SDS011;68776;44.762;37.698;2023-03-31T04:17:30;19.52;;;15.23;;
74872;SDS011;68776;44.762;37.698;2023-03-31T04:18:33;21.63;;;16.92;;
74872;SDS011;68776;44.762;37.698;2023-03-31T04:19:36;20.55;;;16.55;;
74872;SDS011;68776;44.762;37.698;2023-03-31T04:20:37;22.85;;;16.10;;
74872;SDS011;68776;44.762;37.698;2023-03-31T04:21:38;18.20;;;15.05;;
74872;SDS011;68776;44.762;37.698;2023-03-31T04:22:44;18.75;;;15.10;;
74872;SDS011;68776;44.762;37.698;2023-03-31T04:23:47;20.42;;;16.25;;
74872;SDS011;68776;44.762;37.698;2023-03-31T04:24:57;20.77;;;16.00;;
74872;SDS011;68776;44.762;37.698;2023-03-31T04:25:59;18.90;;;15.23;;
74872;SDS011;68776;44.762;37.698;2023-03-31T04:27:00;18.27;;;14.65;;
74872;SDS011;68776;44.762;37.698;2023-03-31T04:28:02;15.63;;;13.77;;
74872;SDS011;68776;44.762;37.698;2023-03-31T04:29:06;13.73;;;10.52;;
74872;SDS011;68776;44.762;37.698;2023-03-31T04:30:07;13.32;;;10.88;;
74872;SDS011;68776;44.762;37.698;2023-03-31T04:31:09;14.02;;;12.55;;
74872;SDS011;68776;44.762;37.698;2023-03-31T04:32:14;16.40;;;14.23;;
74872;SDS011;68776;44.762;37.698;2023-03-31T04:33:21;17.23;;;14.13;;
74872;SDS011;68776;44.762;37.698;2023-03-31T04:34:23;13.45;;;11.88;;
74872;SDS011;68776;44.762;37.698;2023-03-31T04:35:27;13.70;;;11.13;;
74872;SDS011;68776;44.762;37.698;2023-03-31T04:36:48;12.15;;;10.02;;
74872;SDS011;68776;44.762;37.698;2023-03-31T04:37:50;12.25;;;10.70;;
74872;SDS011;68776;44.762;37.698;2023-03-31T04:38:58;11.95;;;10.15;;
74872;SDS011;68776;44.762;37.698;2023-03-31T04:40:00;10.88;;;9.63;;
74872;SDS011;68776;44.762;37.698;2023-03-31T04:41:07;12.07;;;10.40;;
74872;SDS011;68776;44.762;37.698;2023-03-31T04:42:08;12.50;;;11.20;;
74872;SDS011;68776;44.762;37.698;2023-03-31T04:43:09;11.07;;;9.48;;
74872;SDS011;68776;44.762;37.698;2023-03-31T04:44:10;10.50;;;9.32;;
74872;SDS011;68776;44.762;37.698;2023-03-31T04:45:11;12.60;;;9.70;;
74872;SDS011;68776;44.762;37.698;2023-03-31T04:46:12;11.68;;;10.20;;
74872;SDS011;68776;44.762;37.698;2023-03-31T04:47:14;11.77;;;9.90;;
74872;SDS011;68776;44.762;37.698;2023-03-31T04:48:15;12.77;;;10.93;;
74872;SDS011;68776;44.762;37.698;2023-03-31T04:49:16;13.70;;;12.27;;
74872;SDS011;68776;44.762;37.698;2023-03-31T04:50:17;12.88;;;11.57;;
74872;SDS011;68776;44.762;37.698;2023-03-31T04:51:18;13.60;;;12.18;;
74872;SDS011;68776;44.762;37.698;2023-03-31T04:52:19;13.00;;;11.70;;
74872;SDS011;68776;44.762;37.698;2023-03-31T04:53:20;14.07;;;10.73;;
74872;SDS011;68776;44.762;37.698;2023-03-31T04:54:22;12.95;;;10.45;;
74872;SDS011;68776;44.762;37.698;2023-03-31T04:55:23;14.13;;;11.95;;
74872;SDS011;68776;44.762;37.698;2023-03-31T04:56:24;13.05;;;11.30;;
74872;SDS011;68776;44.762;37.698;2023-03-31T04:57:25;14.00;;;11.23;;
74872;SDS011;68776;44.762;37.698;2023-03-31T04:58:26;15.30;;;11.77;;
74872;SDS011;68776;44.762;37.698;2023-03-31T04:59:27;12.20;;;10.85;;
74872;SDS011;68776;44.762;37.698;2023-03-31T05:00:28;15.00;;;11.10;;
74872;SDS011;68776;44.762;37.698;2023-03-31T05:01:30;15.27;;;11.43;;
74872;SDS011;68776;44.762;37.698;2023-03-31T05:02:32;15.80;;;11.63;;
74872;SDS011;68776;44.762;37.698;2023-03-31T05:03:33;13.52;;;11.30;;
74872;SDS011;68776;44.762;37.698;2023-03-31T05:04:34;15.30;;;11.13;;
74872;SDS011;68776;44.762;37.698;2023-03-31T05:05:36;15.10;;;11.20;;
74872;SDS011;68776;44.762;37.698;2023-03-31T05:06:37;15.10;;;11.07;;
74872;SDS011;68776;44.762;37.698;2023-03-31T05:07:38;15.15;;;10.63;;
74872;SDS011;68776;44.762;37.698;2023-03-31T05:08:39;15.77;;;12.98;;
74872;SDS011;68776;44.762;37.698;2023-03-31T05:09:40;17.05;;;12.65;;
74872;SDS011;68776;44.762;37.698;2023-03-31T05:10:41;21.23;;;12.50;;
74872;SDS011;68776;44.762;37.698;2023-03-31T05:11:43;16.55;;;13.07;;
74872;SDS011;68776;44.762;37.698;2023-03-31T05:12:43;17.45;;;11.90;;
74872;SDS011;68776;44.762;37.698;2023-03-31T05:13:45;17.98;;;14.35;;
74872;SDS011;68776;44.762;37.698;2023-03-31T05:14:46;17.98;;;12.60;;
74872;SDS011;68776;44.762;37.698;2023-03-31T05:15:47;17.83;;;11.10;;
74872;SDS011;68776;44.762;37.698;2023-03-31T05:16:50;15.25;;;11.27;;
74872;SDS011;68776;44.762;37.698;2023-03-31T05:17:51;18.40;;;11.32;;
74872;SDS011;68776;44.762;37.698;2023-03-31T05:18:52;14.82;;;10.60;;
74872;SDS011;68776;44.762;37.698;2023-03-31T05:19:53;15.93;;;10.73;;
74872;SDS011;68776;44.762;37.698;2023-03-31T05:20:55;15.23;;;10.38;;
74872;SDS011;68776;44.762;37.698;2023-03-31T05:21:55;17.02;;;10.93;;
74872;SDS011;68776;44.762;37.698;2023-03-31T05:22:56;15.95;;;11.25;;
74872;SDS011;68776;44.762;37.698;2023-03-31T05:23:57;15.10;;;9.82;;
74872;SDS011;68776;44.762;37.698;2023-03-31T05:24:58;16.52;;;10.80;;
74872;SDS011;68776;44.762;37.698;2023-03-31T05:25:59;13.98;;;8.93;;
74872;SDS011;68776;44.762;37.698;2023-03-31T05:27:00;16.43;;;8.77;;
74872;SDS011;68776;44.762;37.698;2023-03-31T05:28:01;14.15;;;8.73;;
74872;SDS011;68776;44.762;37.698;2023-03-31T05:29:03;15.75;;;9.48;;
74872;SDS011;68776;44.762;37.698;2023-03-31T05:30:04;16.92;;;9.43;;
74872;SDS011;68776;44.762;37.698;2023-03-31T05:31:07;18.95;;;8.18;;
74872;SDS011;68776;44.762;37.698;2023-03-31T05:32:10;16.85;;;8.85;;
74872;SDS011;68776;44.762;37.698;2023-03-31T05:33:11;18.02;;;9.07;;
74872;SDS011;68776;44.762;37.698;2023-03-31T05:34:12;17.00;;;6.78;;
74872;SDS011;68776;44.762;37.698;2023-03-31T05:35:14;19.17;;;6.90;;
74872;SDS011;68776;44.762;37.698;2023-03-31T05:36:15;17.85;;;7.30;;
74872;SDS011;68776;44.762;37.698;2023-03-31T05:37:19;15.23;;;6.88;;
74872;SDS011;68776;44.762;37.698;2023-03-31T05:38:20;11.90;;;3.70;;
74872;SDS011;68776;44.762;37.698;2023-03-31T05:39:21;8.90;;;3.00;;
74872;SDS011;68776;44.762;37.698;2023-03-31T05:40:22;7.78;;;2.17;;
74872;SDS011;68776;44.762;37.698;2023-03-31T05:41:23;6.55;;;1.80;;
74872;SDS011;68776;44.762;37.698;2023-03-31T05:42:24;5.00;;;1.25;;
74872;SDS011;68776;44.762;37.698;2023-03-31T05:43:26;6.55;;;1.30;;
74872;SDS011;68776;44.762;37.698;2023-03-31T05:44:27;5.10;;;1.40;;
74872;SDS011;68776;44.762;37.698;2023-03-31T05:45:28;6.30;;;1.70;;
74872;SDS011;68776;44.762;37.698;2023-03-31T05:46:29;4.78;;;1.30;;
74872;SDS011;68776;44.762;37.698;2023-03-31T05:47:30;5.32;;;1.70;;
74872;SDS011;68776;44.762;37.698;2023-03-31T05:48:31;5.82;;;1.48;;
74872;SDS011;68776;44.762;37.698;2023-03-31T05:49:32;5.20;;;1.70;;
74872;SDS011;68776;44.762;37.698;2023-03-31T05:50:33;7.57;;;1.88;;
74872;SDS011;68776;44.762;37.698;2023-03-31T05:51:34;5.70;;;1.40;;
74872;SDS011;68776;44.762;37.698;2023-03-31T05:52:35;7.53;;;1.90;;
74872;SDS011;68776;44.762;37.698;2023-03-31T05:53:36;6.38;;;1.42;;
74872;SDS011;68776;44.762;37.698;2023-03-31T05:54:37;6.28;;;1.55;;
74872;SDS011;68776;44.762;37.698;2023-03-31T05:55:38;5.70;;;1.50;;
74872;SDS011;68776;44.762;37.698;2023-03-31T05:56:39;5.20;;;1.50;;
74872;SDS011;68776;44.762;37.698;2023-03-31T05:57:40;4.90;;;1.30;;
74872;SDS011;68776;44.762;37.698;2023-03-31T05:58:41;7.00;;;1.70;;
74872;SDS011;68776;44.762;37.698;2023-03-31T05:59:42;5.60;;;1.50;;
74872;SDS011;68776;44.762;37.698;2023-03-31T06:00:43;7.32;;;1.60;;
74872;SDS011;68776;44.762;37.698;2023-03-31T06:01:44;5.43;;;1.38;;
74872;SDS011;68776;44.762;37.698;2023-03-31T06:02:48;5.25;;;1.50;;
74872;SDS011;68776;44.762;37.698;2023-03-31T06:03:50;5.63;;;1.67;;
74872;SDS011;68776;44.762;37.698;2023-03-31T06:04:51;5.03;;;1.40;;
74872;SDS011;68776;44.762;37.698;2023-03-31T06:05:52;6.13;;;1.47;;
74872;SDS011;68776;44.762;37.698;2023-03-31T06:06:55;5.35;;;1.65;;
74872;SDS011;68776;44.762;37.698;2023-03-31T06:07:57;5.47;;;1.50;;
74872;SDS011;68776;44.762;37.698;2023-03-31T06:08:58;5.50;;;1.58;;
74872;SDS011;68776;44.762;37.698;2023-03-31T06:09:59;4.97;;;1.60;;
74872;SDS011;68776;44.762;37.698;2023-03-31T06:11:04;5.97;;;1.80;;
74872;SDS011;68776;44.762;37.698;2023-03-31T06:12:06;5.55;;;1.35;;
74872;SDS011;68776;44.762;37.698;2023-03-31T06:13:07;7.70;;;1.40;;
74872;SDS011;68776;44.762;37.698;2023-03-31T06:14:08;5.80;;;1.48;;
74872;SDS011;68776;44.762;37.698;2023-03-31T06:15:09;5.82;;;1.50;;
74872;SDS011;68776;44.762;37.698;2023-03-31T06:16:11;5.47;;;1.60;;
74872;SDS011;68776;44.762;37.698;2023-03-31T06:17:13;5.78;;;1.60;;
74872;SDS011;68776;44.762;37.698;2023-03-31T06:18:14;7.75;;;1.50;;
74872;SDS011;68776;44.762;37.698;2023-03-31T06:19:14;6.00;;;1.57;;
74872;SDS011;68776;44.762;37.698;2023-03-31T06:20:16;5.65;;;1.60;;
74872;SDS011;68776;44.762;37.698;2023-03-31T06:21:17;5.53;;;1.50;;
74872;SDS011;68776;44.762;37.698;2023-03-31T06:22:18;5.68;;;1.70;;
74872;SDS011;68776;44.762;37.698;2023-03-31T06:23:20;9.48;;;1.80;;
74872;SDS011;68776;44.762;37.698;2023-03-31T06:24:21;6.05;;;1.40;;
74872;SDS011;68776;44.762;37.698;2023-03-31T06:25:22;7.07;;;1.63;;
74872;SDS011;68776;44.762;37.698;2023-03-31T06:26:23;6.15;;;1.50;;
74872;SDS011;68776;44.762;37.698;2023-03-31T06:27:25;5.40;;;1.48;;
74872;SDS011;68776;44.762;37.698;2023-03-31T06:28:26;5.50;;;1.40;;
74872;SDS011;68776;44.762;37.698;2023-03-31T06:29:27;6.73;;;1.60;;
74872;SDS011;68776;44.762;37.698;2023-03-31T06:30:28;6.50;;;1.55;;
74872;SDS011;68776;44.762;37.698;2023-03-31T06:31:29;5.47;;;1.50;;
74872;SDS011;68776;44.762;37.698;2023-03-31T06:32:30;5.68;;;1.77;;
74872;SDS011;68776;44.762;37.698;2023-03-31T06:33:31;5.95;;;1.77;;
74872;SDS011;68776;44.762;37.698;2023-03-31T06:34:32;5.80;;;1.60;;
74872;SDS011;68776;44.762;37.698;2023-03-31T06:35:36;5.00;;;1.33;;
74872;SDS011;68776;44.762;37.698;2023-03-31T06:36:38;6.07;;;1.45;;
74872;SDS011;68776;44.762;37.698;2023-03-31T06:37:39;5.28;;;1.33;;
74872;SDS011;68776;44.762;37.698;2023-03-31T06:38:40;5.78;;;1.50;;
74872;SDS011;68776;44.762;37.698;2023-03-31T06:39:42;6.15;;;1.50;;
74872;SDS011;68776;44.762;37.698;2023-03-31T06:40:44;4.88;;;1.20;;
74872;SDS011;68776;44.762;37.698;2023-03-31T06:41:45;5.63;;;1.50;;
74872;SDS011;68776;44.762;37.698;2023-03-31T06:42:53;5.35;;;1.60;;
74872;SDS011;68776;44.762;37.698;2023-03-31T06:43:55;5.80;;;1.77;;
74872;SDS011;68776;44.762;37.698;2023-03-31T06:44:56;5.10;;;1.50;;
74872;SDS011;68776;44.762;37.698;2023-03-31T06:45:57;6.68;;;1.60;;
74872;SDS011;68776;44.762;37.698;2023-03-31T06:46:58;8.25;;;2.00;;
74872;SDS011;68776;44.762;37.698;2023-03-31T06:47:59;5.80;;;1.30;;
74872;SDS011;68776;44.762;37.698;2023-03-31T06:49:00;6.30;;;1.33;;
74872;SDS011;68776;44.762;37.698;2023-03-31T06:50:02;5.18;;;1.40;;
74872;SDS011;68776;44.762;37.698;2023-03-31T06:51:04;6.78;;;1.73;;
74872;SDS011;68776;44.762;37.698;2023-03-31T06:52:06;5.80;;;1.90;;
74872;SDS011;68776;44.762;37.698;2023-03-31T06:53:08;5.05;;;1.50;;
74872;SDS011;68776;44.762;37.698;2023-03-31T06:54:09;5.18;;;1.27;;